sensor_id;sensor_type;location;lat;lon;timestamp;temperature;humidity
4615;DHT22;2320;51.362;6.946;2024-01-30T00:01:15;10.20;99.90
4615;DHT22;2320;51.362;6.946;2024-01-30T00:03:40;10.20;99.90
4615;DHT22;2320;51.362;6.946;2024-01-30T00:06:07;10.20;99.90
4615;DHT22;2320;51.362;6.946;2024-01-30T00:08:33;10.20;99.90
4615;DHT22;2320;51.362;6.946;2024-01-30T00:10:59;10.20;99.90
4615;DHT22;2320;51.362;6.946;2024-01-30T00:13:24;10.20;99.90
4615;DHT22;2320;51.362;6.946;2024-01-30T00:15:50;10.20;99.90
4615;DHT22;2320;51.362;6.946;2024-01-30T00:18:15;10.20;99.90
4615;DHT22;2320;51.362;6.946;2024-01-30T00:20:41;10.30;99.90
4615;DHT22;2320;51.362;6.946;2024-01-30T00:23:08;10.30;99.90
4615;DHT22;2320;51.362;6.946;2024-01-30T00:25:34;10.30;99.90
4615;DHT22;2320;51.362;6.946;2024-01-30T00:28:00;10.30;99.90
4615;DHT22;2320;51.362;6.946;2024-01-30T00:30:26;10.30;99.90
4615;DHT22;2320;51.362;6.946;2024-01-30T00:32:52;10.20;99.90
4615;DHT22;2320;51.362;6.946;2024-01-30T00:35:17;10.20;99.90
4615;DHT22;2320;51.362;6.946;2024-01-30T00:37:43;10.20;99.90
4615;DHT22;2320;51.362;6.946;2024-01-30T00:40:09;10.20;99.90
4615;DHT22;2320;51.362;6.946;2024-01-30T00:42:41;10.10;99.90
4615;DHT22;2320;51.362;6.946;2024-01-30T00:45:12;10.20;99.90
4615;DHT22;2320;51.362;6.946;2024-01-30T00:47:38;10.20;99.90
4615;DHT22;2320;51.362;6.946;2024-01-30T00:50:04;10.20;99.90
4615;DHT22;2320;51.362;6.946;2024-01-30T00:52:30;10.20;99.90
4615;DHT22;2320;51.362;6.946;2024-01-30T00:54:55;10.10;99.90
4615;DHT22;2320;51.362;6.946;2024-01-30T00:57:21;10.00;99.90
4615;DHT22;2320;51.362;6.946;2024-01-30T00:59:46;10.00;99.90
4615;DHT22;2320;51.362;6.946;2024-01-30T01:02:12;10.00;99.90
4615;DHT22;2320;51.362;6.946;2024-01-30T01:04:39;10.00;99.90
4615;DHT22;2320;51.362;6.946;2024-01-30T01:07:04;10.00;99.90
4615;DHT22;2320;51.362;6.946;2024-01-30T01:09:30;10.00;99.90
4615;DHT22;2320;51.362;6.946;2024-01-30T01:11:55;10.00;99.90
4615;DHT22;2320;51.362;6.946;2024-01-30T01:14:21;10.00;99.90
4615;DHT22;2320;51.362;6.946;2024-01-30T01:16:46;9.90;99.90
4615;DHT22;2320;51.362;6.946;2024-01-30T01:19:12;10.00;99.90
4615;DHT22;2320;51.362;6.946;2024-01-30T01:21:37;10.00;99.90
4615;DHT22;2320;51.362;6.946;2024-01-30T01:24:03;9.90;99.90
4615;DHT22;2320;51.362;6.946;2024-01-30T01:26:29;9.90;99.90
4615;DHT22;2320;51.362;6.946;2024-01-30T01:28:55;9.90;99.90
4615;DHT22;2320;51.362;6.946;2024-01-30T01:31:20;10.00;99.90
4615;DHT22;2320;51.362;6.946;2024-01-30T01:33:50;10.00;99.90
4615;DHT22;2320;51.362;6.946;2024-01-30T01:36:15;9.90;99.90
4615;DHT22;2320;51.362;6.946;2024-01-30T01:38:41;9.90;99.90
4615;DHT22;2320;51.362;6.946;2024-01-30T01:41:06;9.90;99.90
4615;DHT22;2320;51.362;6.946;2024-01-30T01:43:32;9.90;99.90
4615;DHT22;2320;51.362;6.946;2024-01-30T01:45:58;9.80;99.90
4615;DHT22;2320;51.362;6.946;2024-01-30T01:48:24;9.90;99.90
4615;DHT22;2320;51.362;6.946;2024-01-30T01:50:49;9.90;99.90
4615;DHT22;2320;51.362;6.946;2024-01-30T01:53:15;9.90;99.90
4615;DHT22;2320;51.362;6.946;2024-01-30T01:55:41;9.80;99.90
4615;DHT22;2320;51.362;6.946;2024-01-30T01:58:07;9.80;99.90
4615;DHT22;2320;51.362;6.946;2024-01-30T02:00:35;9.80;99.90
4615;DHT22;2320;51.362;6.946;2024-01-30T02:03:02;9.80;99.90
4615;DHT22;2320;51.362;6.946;2024-01-30T02:05:28;9.80;99.90
4615;DHT22;2320;51.362;6.946;2024-01-30T02:07:54;9.80;99.90
4615;DHT22;2320;51.362;6.946;2024-01-30T02:10:20;9.90;99.90
4615;DHT22;2320;51.362;6.946;2024-01-30T02:12:45;9.90;99.90
4615;DHT22;2320;51.362;6.946;2024-01-30T02:15:13;9.80;99.90
4615;DHT22;2320;51.362;6.946;2024-01-30T02:17:39;9.80;99.90
4615;DHT22;2320;51.362;6.946;2024-01-30T02:20:04;9.90;99.90
4615;DHT22;2320;51.362;6.946;2024-01-30T02:22:32;9.80;99.90
4615;DHT22;2320;51.362;6.946;2024-01-30T02:24:59;9.80;99.90
4615;DHT22;2320;51.362;6.946;2024-01-30T02:27:24;9.90;99.90
4615;DHT22;2320;51.362;6.946;2024-01-30T02:29:50;9.90;99.90
4615;DHT22;2320;51.362;6.946;2024-01-30T02:32:15;9.80;99.90
4615;DHT22;2320;51.362;6.946;2024-01-30T02:34:41;9.90;99.90
4615;DHT22;2320;51.362;6.946;2024-01-30T02:37:07;9.90;99.90
4615;DHT22;2320;51.362;6.946;2024-01-30T02:39:32;9.90;99.90
4615;DHT22;2320;51.362;6.946;2024-01-30T02:41:58;9.90;99.90
4615;DHT22;2320;51.362;6.946;2024-01-30T02:44:23;9.90;99.90
4615;DHT22;2320;51.362;6.946;2024-01-30T02:46:49;9.90;99.90
4615;DHT22;2320;51.362;6.946;2024-01-30T02:49:14;9.90;99.90
4615;DHT22;2320;51.362;6.946;2024-01-30T02:51:40;9.90;99.90
4615;DHT22;2320;51.362;6.946;2024-01-30T02:54:05;10.00;99.90
4615;DHT22;2320;51.362;6.946;2024-01-30T02:56:31;10.00;99.90
4615;DHT22;2320;51.362;6.946;2024-01-30T02:58:57;10.00;99.90
4615;DHT22;2320;51.362;6.946;2024-01-30T03:01:22;10.00;99.90
4615;DHT22;2320;51.362;6.946;2024-01-30T03:03:49;9.90;99.90
4615;DHT22;2320;51.362;6.946;2024-01-30T03:06:15;9.90;99.90
4615;DHT22;2320;51.362;6.946;2024-01-30T03:08:43;9.90;99.90
4615;DHT22;2320;51.362;6.946;2024-01-30T03:11:08;9.90;99.90
4615;DHT22;2320;51.362;6.946;2024-01-30T03:13:34;9.90;99.90
4615;DHT22;2320;51.362;6.946;2024-01-30T03:16:00;9.90;99.90
4615;DHT22;2320;51.362;6.946;2024-01-30T03:18:25;9.90;99.90
4615;DHT22;2320;51.362;6.946;2024-01-30T03:20:51;9.90;99.90
4615;DHT22;2320;51.362;6.946;2024-01-30T03:23:16;9.90;99.90
4615;DHT22;2320;51.362;6.946;2024-01-30T03:25:42;10.00;99.90
4615;DHT22;2320;51.362;6.946;2024-01-30T03:28:07;10.00;99.90
4615;DHT22;2320;51.362;6.946;2024-01-30T03:30:34;10.00;99.90
4615;DHT22;2320;51.362;6.946;2024-01-30T03:33:00;10.00;99.90
4615;DHT22;2320;51.362;6.946;2024-01-30T03:35:26;10.10;99.90
4615;DHT22;2320;51.362;6.946;2024-01-30T03:37:51;10.10;99.90
4615;DHT22;2320;51.362;6.946;2024-01-30T03:40:17;10.00;99.90
4615;DHT22;2320;51.362;6.946;2024-01-30T03:42:42;10.00;99.90
4615;DHT22;2320;51.362;6.946;2024-01-30T03:45:08;10.00;99.90
4615;DHT22;2320;51.362;6.946;2024-01-30T03:47:34;10.10;99.90
4615;DHT22;2320;51.362;6.946;2024-01-30T03:49:59;10.10;99.90
4615;DHT22;2320;51.362;6.946;2024-01-30T03:52:25;10.10;99.90
4615;DHT22;2320;51.362;6.946;2024-01-30T03:54:50;10.10;99.90
4615;DHT22;2320;51.362;6.946;2024-01-30T03:57:16;10.20;99.90
4615;DHT22;2320;51.362;6.946;2024-01-30T03:59:42;10.20;99.90
4615;DHT22;2320;51.362;6.946;2024-01-30T04:02:09;10.10;99.90
4615;DHT22;2320;51.362;6.946;2024-01-30T04:04:35;10.10;99.90
4615;DHT22;2320;51.362;6.946;2024-01-30T04:07:00;10.10;99.90
4615;DHT22;2320;51.362;6.946;2024-01-30T04:09:26;10.10;99.90
4615;DHT22;2320;51.362;6.946;2024-01-30T04:11:53;10.10;99.90
4615;DHT22;2320;51.362;6.946;2024-01-30T04:14:19;10.10;99.90
4615;DHT22;2320;51.362;6.946;2024-01-30T04:16:44;10.10;99.90
4615;DHT22;2320;51.362;6.946;2024-01-30T04:19:10;10.10;99.90
4615;DHT22;2320;51.362;6.946;2024-01-30T04:21:36;10.10;99.90
4615;DHT22;2320;51.362;6.946;2024-01-30T04:24:01;10.10;99.90
4615;DHT22;2320;51.362;6.946;2024-01-30T04:26:27;10.10;99.90
4615;DHT22;2320;51.362;6.946;2024-01-30T04:28:52;10.20;99.90
4615;DHT22;2320;51.362;6.946;2024-01-30T04:31:18;10.10;99.90
4615;DHT22;2320;51.362;6.946;2024-01-30T04:33:44;10.10;99.90
4615;DHT22;2320;51.362;6.946;2024-01-30T04:36:09;10.10;99.90
4615;DHT22;2320;51.362;6.946;2024-01-30T04:38:38;10.10;99.90
4615;DHT22;2320;51.362;6.946;2024-01-30T04:41:04;10.10;99.90
4615;DHT22;2320;51.362;6.946;2024-01-30T04:43:30;10.10;99.90
4615;DHT22;2320;51.362;6.946;2024-01-30T04:45:56;10.10;99.90
4615;DHT22;2320;51.362;6.946;2024-01-30T04:48:21;10.00;99.90
4615;DHT22;2320;51.362;6.946;2024-01-30T04:50:47;10.00;99.90
4615;DHT22;2320;51.362;6.946;2024-01-30T04:53:12;10.00;99.90
4615;DHT22;2320;51.362;6.946;2024-01-30T04:55:38;10.00;99.90
4615;DHT22;2320;51.362;6.946;2024-01-30T04:58:04;10.00;99.90
4615;DHT22;2320;51.362;6.946;2024-01-30T05:00:29;10.10;99.90
4615;DHT22;2320;51.362;6.946;2024-01-30T05:02:55;10.00;99.90
4615;DHT22;2320;51.362;6.946;2024-01-30T05:05:21;10.10;99.90
4615;DHT22;2320;51.362;6.946;2024-01-30T05:07:47;10.00;99.90
4615;DHT22;2320;51.362;6.946;2024-01-30T05:10:13;10.00;99.90
4615;DHT22;2320;51.362;6.946;2024-01-30T05:12:39;9.90;99.90
4615;DHT22;2320;51.362;6.946;2024-01-30T05:15:05;9.90;99.90
4615;DHT22;2320;51.362;6.946;2024-01-30T05:17:31;9.90;99.90
4615;DHT22;2320;51.362;6.946;2024-01-30T05:19:56;9.90;99.90
4615;DHT22;2320;51.362;6.946;2024-01-30T05:22:22;9.90;99.90
4615;DHT22;2320;51.362;6.946;2024-01-30T05:24:47;9.90;99.90
4615;DHT22;2320;51.362;6.946;2024-01-30T05:27:13;9.90;99.90
4615;DHT22;2320;51.362;6.946;2024-01-30T05:29:39;9.80;99.90
4615;DHT22;2320;51.362;6.946;2024-01-30T05:32:06;9.90;99.90
4615;DHT22;2320;51.362;6.946;2024-01-30T05:34:32;9.90;99.90
4615;DHT22;2320;51.362;6.946;2024-01-30T05:36:57;9.90;99.90
4615;DHT22;2320;51.362;6.946;2024-01-30T05:39:23;9.90;99.90
4615;DHT22;2320;51.362;6.946;2024-01-30T05:41:48;9.90;99.90
4615;DHT22;2320;51.362;6.946;2024-01-30T05:44:14;9.90;99.90
4615;DHT22;2320;51.362;6.946;2024-01-30T05:46:40;9.90;99.90
4615;DHT22;2320;51.362;6.946;2024-01-30T05:49:05;9.80;99.90
4615;DHT22;2320;51.362;6.946;2024-01-30T05:51:31;9.80;99.90
4615;DHT22;2320;51.362;6.946;2024-01-30T05:53:57;9.80;99.90
4615;DHT22;2320;51.362;6.946;2024-01-30T05:56:22;9.80;99.90
4615;DHT22;2320;51.362;6.946;2024-01-30T05:58:48;9.90;99.90
4615;DHT22;2320;51.362;6.946;2024-01-30T06:01:15;9.80;99.90
4615;DHT22;2320;51.362;6.946;2024-01-30T06:03:41;9.80;99.90
4615;DHT22;2320;51.362;6.946;2024-01-30T06:06:08;9.80;99.90
4615;DHT22;2320;51.362;6.946;2024-01-30T06:08:34;9.80;99.90
4615;DHT22;2320;51.362;6.946;2024-01-30T06:10:59;9.80;99.90
4615;DHT22;2320;51.362;6.946;2024-01-30T06:13:26;9.80;99.90
4615;DHT22;2320;51.362;6.946;2024-01-30T06:15:51;9.90;99.90
4615;DHT22;2320;51.362;6.946;2024-01-30T06:18:17;9.80;99.90
4615;DHT22;2320;51.362;6.946;2024-01-30T06:20:43;9.80;99.90
4615;DHT22;2320;51.362;6.946;2024-01-30T06:23:08;9.80;99.90
4615;DHT22;2320;51.362;6.946;2024-01-30T06:25:34;9.70;99.90
4615;DHT22;2320;51.362;6.946;2024-01-30T06:28:00;9.80;99.90
4615;DHT22;2320;51.362;6.946;2024-01-30T06:30:25;9.80;99.90
4615;DHT22;2320;51.362;6.946;2024-01-30T06:32:51;9.90;99.90
4615;DHT22;2320;51.362;6.946;2024-01-30T06:35:16;9.90;99.90
4615;DHT22;2320;51.362;6.946;2024-01-30T06:37:43;9.90;99.90
4615;DHT22;2320;51.362;6.946;2024-01-30T06:40:09;9.90;99.90
4615;DHT22;2320;51.362;6.946;2024-01-30T06:42:35;9.90;99.90
4615;DHT22;2320;51.362;6.946;2024-01-30T06:45:00;9.90;99.90
4615;DHT22;2320;51.362;6.946;2024-01-30T06:47:26;10.00;99.90
4615;DHT22;2320;51.362;6.946;2024-01-30T06:49:51;10.00;99.90
4615;DHT22;2320;51.362;6.946;2024-01-30T06:52:17;10.00;99.90
4615;DHT22;2320;51.362;6.946;2024-01-30T06:54:42;10.10;99.90
4615;DHT22;2320;51.362;6.946;2024-01-30T06:57:08;10.10;99.90
4615;DHT22;2320;51.362;6.946;2024-01-30T06:59:38;10.20;99.90
4615;DHT22;2320;51.362;6.946;2024-01-30T07:02:10;10.20;99.90
4615;DHT22;2320;51.362;6.946;2024-01-30T07:04:36;10.20;99.90
4615;DHT22;2320;51.362;6.946;2024-01-30T07:07:03;10.20;99.90
4615;DHT22;2320;51.362;6.946;2024-01-30T07:09:30;10.20;99.90
4615;DHT22;2320;51.362;6.946;2024-01-30T07:11:56;10.10;99.90
4615;DHT22;2320;51.362;6.946;2024-01-30T07:14:24;10.20;99.90
4615;DHT22;2320;51.362;6.946;2024-01-30T07:16:49;10.10;99.90
4615;DHT22;2320;51.362;6.946;2024-01-30T07:19:16;10.20;99.90
4615;DHT22;2320;51.362;6.946;2024-01-30T07:21:42;10.20;99.90
4615;DHT22;2320;51.362;6.946;2024-01-30T07:24:07;10.30;99.90
4615;DHT22;2320;51.362;6.946;2024-01-30T07:26:33;10.30;99.90
4615;DHT22;2320;51.362;6.946;2024-01-30T07:28:58;10.30;99.90
4615;DHT22;2320;51.362;6.946;2024-01-30T07:31:24;10.30;99.90
4615;DHT22;2320;51.362;6.946;2024-01-30T07:33:49;10.30;99.90
4615;DHT22;2320;51.362;6.946;2024-01-30T07:36:15;10.30;99.90
4615;DHT22;2320;51.362;6.946;2024-01-30T07:38:40;10.40;99.90
4615;DHT22;2320;51.362;6.946;2024-01-30T07:41:06;10.40;99.90
4615;DHT22;2320;51.362;6.946;2024-01-30T07:43:32;10.40;99.90
4615;DHT22;2320;51.362;6.946;2024-01-30T07:45:59;10.50;99.90
4615;DHT22;2320;51.362;6.946;2024-01-30T07:48:26;10.50;99.90
4615;DHT22;2320;51.362;6.946;2024-01-30T07:50:51;10.50;99.90
4615;DHT22;2320;51.362;6.946;2024-01-30T07:53:17;10.60;99.90
4615;DHT22;2320;51.362;6.946;2024-01-30T07:55:42;10.50;99.90
4615;DHT22;2320;51.362;6.946;2024-01-30T07:58:12;10.60;99.90
4615;DHT22;2320;51.362;6.946;2024-01-30T08:00:37;10.60;99.90
4615;DHT22;2320;51.362;6.946;2024-01-30T08:03:04;10.60;99.90
4615;DHT22;2320;51.362;6.946;2024-01-30T08:05:29;10.60;99.90
4615;DHT22;2320;51.362;6.946;2024-01-30T08:07:55;10.70;99.90
4615;DHT22;2320;51.362;6.946;2024-01-30T08:10:20;10.70;99.90
4615;DHT22;2320;51.362;6.946;2024-01-30T08:12:46;10.70;99.90
4615;DHT22;2320;51.362;6.946;2024-01-30T08:15:12;10.70;99.90
4615;DHT22;2320;51.362;6.946;2024-01-30T08:17:38;10.80;99.90
4615;DHT22;2320;51.362;6.946;2024-01-30T08:20:04;10.80;99.90
4615;DHT22;2320;51.362;6.946;2024-01-30T08:22:30;10.80;99.90
4615;DHT22;2320;51.362;6.946;2024-01-30T08:24:56;10.70;99.90
4615;DHT22;2320;51.362;6.946;2024-01-30T08:27:21;10.80;99.90
4615;DHT22;2320;51.362;6.946;2024-01-30T08:29:47;10.80;99.90
4615;DHT22;2320;51.362;6.946;2024-01-30T08:32:13;10.80;99.90
4615;DHT22;2320;51.362;6.946;2024-01-30T08:34:38;10.90;99.90
4615;DHT22;2320;51.362;6.946;2024-01-30T08:37:04;10.90;99.90
4615;DHT22;2320;51.362;6.946;2024-01-30T08:39:29;10.90;99.90
4615;DHT22;2320;51.362;6.946;2024-01-30T08:41:56;10.90;99.90
4615;DHT22;2320;51.362;6.946;2024-01-30T08:44:21;10.90;99.90
4615;DHT22;2320;51.362;6.946;2024-01-30T08:46:47;11.00;99.90
4615;DHT22;2320;51.362;6.946;2024-01-30T08:49:13;11.00;99.90
4615;DHT22;2320;51.362;6.946;2024-01-30T08:51:39;11.00;99.90
4615;DHT22;2320;51.362;6.946;2024-01-30T08:54:05;11.10;99.90
4615;DHT22;2320;51.362;6.946;2024-01-30T08:56:30;11.20;99.90
4615;DHT22;2320;51.362;6.946;2024-01-30T08:58:56;11.30;99.90
4615;DHT22;2320;51.362;6.946;2024-01-30T09:01:22;11.30;99.90
4615;DHT22;2320;51.362;6.946;2024-01-30T09:03:47;11.30;99.90
4615;DHT22;2320;51.362;6.946;2024-01-30T09:06:13;11.40;99.90
4615;DHT22;2320;51.362;6.946;2024-01-30T09:08:39;11.50;99.90
4615;DHT22;2320;51.362;6.946;2024-01-30T09:11:12;11.50;99.90
4615;DHT22;2320;51.362;6.946;2024-01-30T09:13:38;11.50;99.90
4615;DHT22;2320;51.362;6.946;2024-01-30T09:16:04;11.50;99.90
4615;DHT22;2320;51.362;6.946;2024-01-30T09:18:30;11.50;99.90
4615;DHT22;2320;51.362;6.946;2024-01-30T09:20:56;11.50;99.90
4615;DHT22;2320;51.362;6.946;2024-01-30T09:23:21;11.50;99.90
4615;DHT22;2320;51.362;6.946;2024-01-30T09:25:47;11.60;99.90
4615;DHT22;2320;51.362;6.946;2024-01-30T09:28:13;11.60;99.90
4615;DHT22;2320;51.362;6.946;2024-01-30T09:30:39;11.50;99.90
4615;DHT22;2320;51.362;6.946;2024-01-30T09:33:06;11.60;99.90
4615;DHT22;2320;51.362;6.946;2024-01-30T09:35:31;11.60;99.90
4615;DHT22;2320;51.362;6.946;2024-01-30T09:37:57;11.70;99.90
4615;DHT22;2320;51.362;6.946;2024-01-30T09:40:24;11.70;99.90
4615;DHT22;2320;51.362;6.946;2024-01-30T09:42:53;11.80;99.90
4615;DHT22;2320;51.362;6.946;2024-01-30T09:45:19;11.90;99.90
4615;DHT22;2320;51.362;6.946;2024-01-30T09:47:45;12.10;99.90
4615;DHT22;2320;51.362;6.946;2024-01-30T09:50:13;12.30;99.90
4615;DHT22;2320;51.362;6.946;2024-01-30T09:52:39;12.30;99.90
4615;DHT22;2320;51.362;6.946;2024-01-30T09:55:06;12.30;99.90
4615;DHT22;2320;51.362;6.946;2024-01-30T09:57:32;12.30;99.90
4615;DHT22;2320;51.362;6.946;2024-01-30T09:59:58;12.50;99.90
4615;DHT22;2320;51.362;6.946;2024-01-30T10:02:23;12.50;99.90
4615;DHT22;2320;51.362;6.946;2024-01-30T10:04:50;12.60;99.90
4615;DHT22;2320;51.362;6.946;2024-01-30T10:07:17;12.80;99.90
4615;DHT22;2320;51.362;6.946;2024-01-30T10:09:43;12.90;99.90
4615;DHT22;2320;51.362;6.946;2024-01-30T10:12:12;13.10;99.90
4615;DHT22;2320;51.362;6.946;2024-01-30T10:14:38;13.00;99.90
4615;DHT22;2320;51.362;6.946;2024-01-30T10:17:04;13.20;99.90
4615;DHT22;2320;51.362;6.946;2024-01-30T10:19:31;13.20;99.90
4615;DHT22;2320;51.362;6.946;2024-01-30T10:21:57;13.40;99.90
4615;DHT22;2320;51.362;6.946;2024-01-30T10:24:26;13.40;99.90
4615;DHT22;2320;51.362;6.946;2024-01-30T10:26:52;13.40;99.90
4615;DHT22;2320;51.362;6.946;2024-01-30T10:29:18;13.30;99.90
4615;DHT22;2320;51.362;6.946;2024-01-30T10:31:44;13.30;99.90
4615;DHT22;2320;51.362;6.946;2024-01-30T10:34:09;13.30;99.90
4615;DHT22;2320;51.362;6.946;2024-01-30T10:36:40;13.40;99.90
4615;DHT22;2320;51.362;6.946;2024-01-30T10:39:07;13.30;99.90
4615;DHT22;2320;51.362;6.946;2024-01-30T10:41:40;13.50;99.90
4615;DHT22;2320;51.362;6.946;2024-01-30T10:44:09;13.50;99.90
4615;DHT22;2320;51.362;6.946;2024-01-30T10:46:37;13.60;99.90
4615;DHT22;2320;51.362;6.946;2024-01-30T10:49:04;13.50;99.90
4615;DHT22;2320;51.362;6.946;2024-01-30T10:51:31;13.60;99.90
4615;DHT22;2320;51.362;6.946;2024-01-30T10:53:57;13.60;99.90
4615;DHT22;2320;51.362;6.946;2024-01-30T10:56:24;13.60;99.90
4615;DHT22;2320;51.362;6.946;2024-01-30T10:58:53;13.70;99.90
4615;DHT22;2320;51.362;6.946;2024-01-30T11:01:23;13.70;99.90
4615;DHT22;2320;51.362;6.946;2024-01-30T11:03:52;13.70;99.90
4615;DHT22;2320;51.362;6.946;2024-01-30T11:06:22;13.80;99.90
4615;DHT22;2320;51.362;6.946;2024-01-30T11:09:03;13.90;99.90
4615;DHT22;2320;51.362;6.946;2024-01-30T11:11:29;13.90;99.90
4615;DHT22;2320;51.362;6.946;2024-01-30T11:13:55;13.90;99.90
4615;DHT22;2320;51.362;6.946;2024-01-30T11:16:21;13.90;99.90
4615;DHT22;2320;51.362;6.946;2024-01-30T11:18:50;13.90;99.90
4615;DHT22;2320;51.362;6.946;2024-01-30T11:21:17;14.00;99.90
4615;DHT22;2320;51.362;6.946;2024-01-30T11:23:42;14.00;99.90
4615;DHT22;2320;51.362;6.946;2024-01-30T11:26:10;13.90;99.90
4615;DHT22;2320;51.362;6.946;2024-01-30T11:28:37;13.90;99.90
4615;DHT22;2320;51.362;6.946;2024-01-30T11:31:04;13.80;99.90
4615;DHT22;2320;51.362;6.946;2024-01-30T11:33:30;13.80;99.90
4615;DHT22;2320;51.362;6.946;2024-01-30T11:36:00;13.90;99.90
4615;DHT22;2320;51.362;6.946;2024-01-30T11:38:26;13.90;99.90
4615;DHT22;2320;51.362;6.946;2024-01-30T11:40:56;13.90;99.90
4615;DHT22;2320;51.362;6.946;2024-01-30T11:43:25;13.90;99.90
4615;DHT22;2320;51.362;6.946;2024-01-30T11:45:51;13.80;99.90
4615;DHT22;2320;51.362;6.946;2024-01-30T11:48:17;13.80;99.90
4615;DHT22;2320;51.362;6.946;2024-01-30T11:50:43;13.80;99.90
4615;DHT22;2320;51.362;6.946;2024-01-30T11:53:10;13.70;99.90
4615;DHT22;2320;51.362;6.946;2024-01-30T11:55:36;13.60;99.90
4615;DHT22;2320;51.362;6.946;2024-01-30T11:58:03;13.60;99.90
4615;DHT22;2320;51.362;6.946;2024-01-30T12:00:29;13.50;99.90
4615;DHT22;2320;51.362;6.946;2024-01-30T12:02:56;13.50;99.90
4615;DHT22;2320;51.362;6.946;2024-01-30T12:05:23;13.40;99.90
4615;DHT22;2320;51.362;6.946;2024-01-30T12:07:48;13.40;99.90
4615;DHT22;2320;51.362;6.946;2024-01-30T12:10:14;13.40;99.90
4615;DHT22;2320;51.362;6.946;2024-01-30T12:12:42;13.40;99.90
4615;DHT22;2320;51.362;6.946;2024-01-30T12:15:08;13.40;99.90
4615;DHT22;2320;51.362;6.946;2024-01-30T12:17:35;13.40;99.90
4615;DHT22;2320;51.362;6.946;2024-01-30T12:20:04;13.40;99.90
4615;DHT22;2320;51.362;6.946;2024-01-30T12:22:38;13.40;99.90
4615;DHT22;2320;51.362;6.946;2024-01-30T12:25:08;13.40;99.90
4615;DHT22;2320;51.362;6.946;2024-01-30T12:27:35;13.40;99.90
4615;DHT22;2320;51.362;6.946;2024-01-30T12:30:00;13.40;99.90
4615;DHT22;2320;51.362;6.946;2024-01-30T12:32:26;13.40;99.90
4615;DHT22;2320;51.362;6.946;2024-01-30T12:34:55;13.40;99.90
4615;DHT22;2320;51.362;6.946;2024-01-30T12:37:21;13.40;99.90
4615;DHT22;2320;51.362;6.946;2024-01-30T12:39:50;13.40;99.90
4615;DHT22;2320;51.362;6.946;2024-01-30T12:42:16;13.40;99.90
4615;DHT22;2320;51.362;6.946;2024-01-30T12:44:42;13.40;99.90
4615;DHT22;2320;51.362;6.946;2024-01-30T12:47:11;13.50;99.90
4615;DHT22;2320;51.362;6.946;2024-01-30T12:49:37;13.40;99.90
4615;DHT22;2320;51.362;6.946;2024-01-30T12:52:02;13.50;99.90
4615;DHT22;2320;51.362;6.946;2024-01-30T12:54:28;13.60;99.90
4615;DHT22;2320;51.362;6.946;2024-01-30T12:56:53;13.60;99.90
4615;DHT22;2320;51.362;6.946;2024-01-30T12:59:19;13.60;99.90
4615;DHT22;2320;51.362;6.946;2024-01-30T13:01:45;13.50;99.90
4615;DHT22;2320;51.362;6.946;2024-01-30T13:04:10;13.50;99.90
4615;DHT22;2320;51.362;6.946;2024-01-30T13:06:36;13.40;99.90
4615;DHT22;2320;51.362;6.946;2024-01-30T13:09:02;13.30;99.90
4615;DHT22;2320;51.362;6.946;2024-01-30T13:11:28;13.20;99.90
4615;DHT22;2320;51.362;6.946;2024-01-30T13:13:53;13.20;99.90
4615;DHT22;2320;51.362;6.946;2024-01-30T13:16:19;13.10;99.90
4615;DHT22;2320;51.362;6.946;2024-01-30T13:18:44;13.20;99.90
4615;DHT22;2320;51.362;6.946;2024-01-30T13:21:10;13.10;99.90
4615;DHT22;2320;51.362;6.946;2024-01-30T13:23:36;13.10;99.90
4615;DHT22;2320;51.362;6.946;2024-01-30T13:26:01;13.00;99.90
4615;DHT22;2320;51.362;6.946;2024-01-30T13:28:27;13.00;99.90
4615;DHT22;2320;51.362;6.946;2024-01-30T13:30:53;13.00;99.90
4615;DHT22;2320;51.362;6.946;2024-01-30T13:33:18;12.90;99.90
4615;DHT22;2320;51.362;6.946;2024-01-30T13:35:44;12.90;99.90
4615;DHT22;2320;51.362;6.946;2024-01-30T13:38:09;12.90;99.90
4615;DHT22;2320;51.362;6.946;2024-01-30T13:40:35;12.90;99.90
4615;DHT22;2320;51.362;6.946;2024-01-30T13:43:01;13.00;99.90
4615;DHT22;2320;51.362;6.946;2024-01-30T13:45:27;13.00;99.90
4615;DHT22;2320;51.362;6.946;2024-01-30T13:47:52;13.00;99.90
4615;DHT22;2320;51.362;6.946;2024-01-30T13:50:18;13.00;99.90
4615;DHT22;2320;51.362;6.946;2024-01-30T13:52:45;13.00;99.90
4615;DHT22;2320;51.362;6.946;2024-01-30T13:55:10;13.00;99.90
4615;DHT22;2320;51.362;6.946;2024-01-30T13:57:37;13.00;99.90
4615;DHT22;2320;51.362;6.946;2024-01-30T14:00:03;13.00;99.90
4615;DHT22;2320;51.362;6.946;2024-01-30T14:02:32;12.90;99.90
4615;DHT22;2320;51.362;6.946;2024-01-30T14:04:57;12.90;99.90
4615;DHT22;2320;51.362;6.946;2024-01-30T14:07:23;13.00;99.90
4615;DHT22;2320;51.362;6.946;2024-01-30T14:09:49;13.00;99.90
4615;DHT22;2320;51.362;6.946;2024-01-30T14:12:15;13.00;99.90
4615;DHT22;2320;51.362;6.946;2024-01-30T14:14:40;13.00;99.90
4615;DHT22;2320;51.362;6.946;2024-01-30T14:17:06;13.00;99.90
4615;DHT22;2320;51.362;6.946;2024-01-30T14:19:33;13.10;99.90
4615;DHT22;2320;51.362;6.946;2024-01-30T14:21:59;13.20;99.90
4615;DHT22;2320;51.362;6.946;2024-01-30T14:24:25;13.40;99.90
4615;DHT22;2320;51.362;6.946;2024-01-30T14:26:52;13.40;99.90
4615;DHT22;2320;51.362;6.946;2024-01-30T14:29:17;13.40;99.90
4615;DHT22;2320;51.362;6.946;2024-01-30T14:31:43;13.40;99.90
4615;DHT22;2320;51.362;6.946;2024-01-30T14:34:08;13.40;99.90
4615;DHT22;2320;51.362;6.946;2024-01-30T14:36:36;13.50;99.90
4615;DHT22;2320;51.362;6.946;2024-01-30T14:39:02;13.50;99.90
4615;DHT22;2320;51.362;6.946;2024-01-30T14:41:29;13.50;99.90
4615;DHT22;2320;51.362;6.946;2024-01-30T14:43:54;13.50;99.90
4615;DHT22;2320;51.362;6.946;2024-01-30T14:46:20;13.60;99.90
4615;DHT22;2320;51.362;6.946;2024-01-30T14:48:47;13.50;99.90
4615;DHT22;2320;51.362;6.946;2024-01-30T14:51:12;13.50;99.90
4615;DHT22;2320;51.362;6.946;2024-01-30T14:53:39;13.40;99.90
4615;DHT22;2320;51.362;6.946;2024-01-30T14:56:05;13.30;99.90
4615;DHT22;2320;51.362;6.946;2024-01-30T14:58:31;13.30;99.90
4615;DHT22;2320;51.362;6.946;2024-01-30T15:00:57;13.20;99.90
4615;DHT22;2320;51.362;6.946;2024-01-30T15:03:22;13.10;99.90
4615;DHT22;2320;51.362;6.946;2024-01-30T15:05:48;13.00;99.90
4615;DHT22;2320;51.362;6.946;2024-01-30T15:08:13;13.00;99.90
4615;DHT22;2320;51.362;6.946;2024-01-30T15:10:39;13.00;99.90
4615;DHT22;2320;51.362;6.946;2024-01-30T15:13:05;12.80;99.90
4615;DHT22;2320;51.362;6.946;2024-01-30T15:15:30;12.90;99.90
4615;DHT22;2320;51.362;6.946;2024-01-30T15:17:56;12.80;99.90
4615;DHT22;2320;51.362;6.946;2024-01-30T15:20:23;12.80;99.90
4615;DHT22;2320;51.362;6.946;2024-01-30T15:22:48;12.80;99.90
4615;DHT22;2320;51.362;6.946;2024-01-30T15:25:14;12.80;99.90
4615;DHT22;2320;51.362;6.946;2024-01-30T15:27:39;12.80;99.90
4615;DHT22;2320;51.362;6.946;2024-01-30T15:30:06;12.80;99.90
4615;DHT22;2320;51.362;6.946;2024-01-30T15:32:32;12.70;99.90
4615;DHT22;2320;51.362;6.946;2024-01-30T15:34:59;12.60;99.90
4615;DHT22;2320;51.362;6.946;2024-01-30T15:37:28;12.50;99.90
4615;DHT22;2320;51.362;6.946;2024-01-30T15:39:54;12.50;99.90
4615;DHT22;2320;51.362;6.946;2024-01-30T15:42:19;12.50;99.90
4615;DHT22;2320;51.362;6.946;2024-01-30T15:44:45;12.50;99.90
4615;DHT22;2320;51.362;6.946;2024-01-30T15:47:10;12.50;99.90
4615;DHT22;2320;51.362;6.946;2024-01-30T15:49:36;12.50;99.90
4615;DHT22;2320;51.362;6.946;2024-01-30T15:52:02;12.50;99.90
4615;DHT22;2320;51.362;6.946;2024-01-30T15:54:27;12.50;99.90
4615;DHT22;2320;51.362;6.946;2024-01-30T15:56:53;12.40;99.90